Latest Weather Observations for Cerberus

IDV60901

Issued at 10:11 am EDT Sunday 7 February 2016 (issued every 10 minutes, with the page automatically refreshed every 10 minutes)

About weather observations | Map of Melbourne area stations | Latest observations for Melbourne area | Other Formats
Station Details ID: 086361 Name: CERBERUS Lat: -38.36 Lon: 145.18 Height: 12.69 m
Data from the previous 72 hours. | See also: Recent months at Cerberus
Date/Time
EDT
Tmp

°C
App
Tmp
°C
Dew
Point
°C
Rel
Hum
%
Delta-T

°C
Wind Press
QNH
hPa
Press
MSL
hPa
Rain
since
9 am
mm
Dir
 
Spd
km/h
Gust
km/h
Spd
kts
Gust
kts
07/10:00am 25.6 27.5 16.7 58 5.5 ESE 2 7 1 4 1017.0 1016.9 0.0
07/09:30am 23.5 25.4 16.8 66 4.1 S 2 9 1 5 1016.8 1016.7 0.0
07/09:00am 21.6 23.5 15.7 69 3.5 CALM 0 4 0 2 1016.8 1016.7 0.0
07/08:30am 20.5 22.5 15.9 75 2.7 CALM 0 0 0 0 1016.3 1016.2 0.0
07/08:00am 18.3 20.1 15.6 84 1.6 CALM 0 0 0 0 1016.0 1015.9 0.0
07/07:30am 17.4 19.2 15.6 89 1.1 CALM 0 9 0 5 1015.7 1015.6 0.0
07/07:00am 15.8 17.1 14.0 89 1.0 CALM 0 0 0 0 1015.5 1015.4 0.0
07/06:30am 16.6 18.2 14.8 89 1.0 CALM 0 7 0 4 1015.2 1015.1 0.0
07/06:00am 16.2 17.5 14.2 88 1.1 CALM 0 0 0 0 1014.8 1014.7 0.0
07/05:30am 16.6 18.0 14.4 87 1.3 CALM 0 0 0 0 1014.6 1014.5 0.0
07/05:00am 17.6 19.4 15.4 87 1.3 CALM 0 0 0 0 1014.6 1014.5 0.0
07/04:30am 18.2 20.0 15.6 85 1.5 CALM 0 0 0 0 1014.5 1014.4 0.0
07/04:00am 18.4 20.3 15.8 85 1.5 CALM 0 0 0 0 1014.6 1014.5 0.0
07/03:30am 18.3 20.1 15.6 84 1.6 CALM 0 0 0 0 1014.6 1014.5 0.0
07/03:00am 18.0 19.7 15.3 84 1.6 CALM 0 0 0 0 1014.6 1014.5 0.0
07/02:30am 17.4 18.9 14.7 84 1.6 CALM 0 0 0 0 1014.8 1014.7 0.0
07/02:00am 18.0 19.4 14.5 80 2.0 CALM 0 0 0 0 1015.1 1015.0 0.0
07/01:30am 19.0 20.7 15.1 78 2.3 CALM 0 0 0 0 1015.3 1015.2 0.0
07/01:00am 19.5 21.0 14.7 74 2.8 CALM 0 4 0 2 1015.4 1015.3 0.0
07/12:30am 20.4 21.3 15.2 72 3.1 NNE 4 7 2 4 1015.4 1015.3 0.0
07/12:00am 21.0 21.3 15.1 69 3.5 N 7 15 4 8 1015.4 1015.3 0.0
 
Date/Time
EDT
Tmp

°C
App
Tmp
°C
Dew
Point
°C
Rel
Hum
%
Delta-T

°C
Wind Press
QNH
hPa
Press
MSL
hPa
Rain
since
9 am
mm
Dir
 
Spd
km/h
Gust
km/h
Spd
kts
Gust
kts
06/11:30pm 21.4 21.8 15.3 68 3.6 N 7 11 4 6 1015.6 1015.5 0.0
06/11:00pm 21.6 21.9 15.0 66 3.9 N 7 13 4 7 1015.6 1015.5 0.0
06/10:30pm 22.6 22.6 15.2 63 4.4 N 9 13 5 7 1015.6 1015.5 0.0
06/10:00pm 23.3 23.3 15.1 60 4.9 N 9 15 5 8 1015.4 1015.3 0.0
06/09:30pm 24.1 24.1 15.3 58 5.3 NNE 9 19 5 10 1014.9 1014.8 0.0
06/09:00pm 24.2 25.8 15.9 59 5.0 ESE 2 11 1 6 1014.4 1014.3 0.0
06/08:30pm 24.6 25.4 17.3 64 4.5 ESE 9 17 5 9 1014.0 1013.9 0.0
06/08:00pm 25.4 25.0 17.1 60 5.2 ESE 15 28 8 15 1013.7 1013.6 0.0
06/07:30pm 26.9 25.4 15.3 49 7.0 ESE 17 26 9 14 1013.6 1013.5 0.0
06/07:00pm 27.7 26.1 15.0 45 7.7 SE 17 26 9 14 1013.7 1013.6 0.0
06/06:30pm 28.4 27.4 15.7 46 7.8 ESE 15 24 8 13 1013.6 1013.5 0.0
06/06:00pm 28.7 27.9 15.2 43 8.2 ESE 13 20 7 11 1013.8 1013.7 0.0
06/05:30pm 29.0 27.8 14.0 39 9.0 ESE 13 24 7 13 1013.7 1013.6 0.0
06/05:00pm 29.1 27.6 14.1 40 9.0 ESE 15 24 8 13 1014.0 1013.9 0.0
06/04:30pm 29.5 27.6 12.9 36 9.8 ESE 15 20 8 11 1014.2 1014.1 0.0
06/04:00pm 30.4 29.4 10.9 30 11.2 ESE 7 13 4 7 1014.5 1014.4 0.0
06/03:30pm 29.7 28.1 11.7 33 10.4 ESE 11 17 6 9 1014.9 1014.8 0.0
06/03:00pm 29.9 27.9 12.8 35 10.1 E 15 20 8 11 1015.0 1014.9 0.0
06/02:30pm 29.8 27.9 11.8 33 10.5 ENE 13 20 7 11 1015.2 1015.1 0.0
06/02:00pm 28.6 26.6 11.6 34 9.8 ENE 13 19 7 10 1015.6 1015.5 0.0
06/01:30pm 28.4 27.2 12.7 38 9.2 ENE 11 20 6 11 1016.0 1015.9 0.0
06/01:00pm 28.0 26.5 13.1 39 8.8 NE 13 19 7 10 1016.4 1016.3 0.0
06/12:30pm 27.3 26.4 12.5 40 8.6 NNE 9 19 5 10 1016.8 1016.7 0.0
06/12:00pm 26.8 25.7 13.2 43 8.0 N 11 20 6 11 1017.1 1017.0 0.0
06/11:30am 25.9 25.6 14.4 49 6.9 N 9 17 5 9 1017.3 1017.2 0.0
06/11:00am 24.6 23.9 14.4 53 6.0 N 11 17 6 9 1017.5 1017.4 0.0
06/10:30am 22.9 22.5 14.2 58 5.1 N 9 17 5 9 1017.6 1017.5 0.0
06/10:00am 21.9 21.6 14.5 63 4.3 N 9 17 5 9 1017.7 1017.6 0.0
06/09:30am 21.0 20.6 14.2 65 4.0 N 9 15 5 8 1017.9 1017.8 0.0
06/09:00am 19.8 19.3 13.7 68 3.5 N 9 19 5 10 1017.9 1017.8 0.0
06/08:30am 19.6 19.7 14.0 70 3.2 N 6 17 3 9 1017.7 1017.6 0.0
06/08:00am 18.7 18.8 14.0 74 2.7 N 6 17 3 9 1017.6 1017.5 0.0
06/07:30am 18.0 17.5 13.7 76 2.4 N 9 20 5 11 1017.3 1017.2 0.0
06/07:00am 17.4 17.4 13.5 78 2.2 N 6 17 3 9 1017.1 1017.0 0.0
06/06:30am 17.4 17.5 13.9 80 2.0 N 6 19 3 10 1017.0 1016.9 0.0
06/06:00am 17.3 16.7 13.4 78 2.2 N 9 17 5 9 1016.4 1016.3 0.0
06/05:30am 17.5 16.1 13.4 77 2.3 N 13 20 7 11 1016.3 1016.2 0.0
06/05:00am 17.7 16.3 13.4 76 2.4 N 13 22 7 12 1016.3 1016.2 0.0
06/04:30am 17.9 16.9 13.4 75 2.5 N 11 19 6 10 1016.5 1016.4 0.0
06/04:00am 18.1 17.0 13.2 73 2.8 N 11 19 6 10 1016.7 1016.6 0.0
06/03:30am 18.2 16.7 13.1 72 2.9 N 13 22 7 12 1016.8 1016.7 0.0
06/03:00am 18.4 17.0 13.3 72 2.9 N 13 24 7 13 1017.0 1016.9 0.0
06/02:30am 18.5 16.9 12.9 70 3.1 N 13 26 7 14 1017.2 1017.1 0.0
06/02:00am 18.5 16.5 12.7 69 3.2 N 15 20 8 11 1017.2 1017.1 0.0
06/01:30am 18.6 16.6 12.6 68 3.4 N 15 28 8 15 1017.6 1017.5 0.0
06/01:00am 18.8 16.8 12.8 68 3.4 NNE 15 30 8 16 1017.7 1017.6 0.0
06/12:30am 18.7 16.9 12.2 66 3.6 N 13 20 7 11 1017.9 1017.8 0.0
06/12:00am 18.9 17.4 11.9 64 3.9 N 11 19 6 10 1018.1 1018.0 0.0
 
Date/Time
EDT
Tmp

°C
App
Tmp
°C
Dew
Point
°C
Rel
Hum
%
Delta-T

°C
Wind Press
QNH
hPa
Press
MSL
hPa
Rain
since
9 am
mm
Dir
 
Spd
km/h
Gust
km/h
Spd
kts
Gust
kts
05/11:30pm 19.4 17.8 11.7 61 4.3 N 11 20 6 11 1018.3 1018.2 0.0
05/11:00pm 19.7 17.8 11.7 60 4.4 N 13 24 7 13 1018.5 1018.4 0.0
05/10:30pm 20.4 18.2 12.1 59 4.6 N 15 28 8 15 1018.5 1018.4 0.0
05/10:00pm 20.9 18.8 12.3 58 4.8 N 15 22 8 12 1018.5 1018.4 0.0
05/09:30pm 21.5 19.3 12.1 55 5.3 N 15 26 8 14 1018.2 1018.1 0.0
05/09:00pm 22.1 19.4 11.8 52 5.8 NNE 17 26 9 14 1017.8 1017.7 0.0
05/08:30pm 22.9 20.4 11.0 47 6.6 NNE 15 24 8 13 1017.6 1017.5 0.0
05/08:00pm 24.1 21.9 10.7 43 7.4 NNE 13 24 7 13 1017.1 1017.0 0.0
05/07:30pm 25.1 22.9 10.9 41 8.0 NNE 13 26 7 14 1016.7 1016.6 0.0
05/07:00pm 25.6 23.0 10.6 39 8.4 NNE 15 28 8 15 1016.6 1016.5 0.0
05/06:30pm 26.0 22.9 10.2 37 8.8 NE 17 26 9 14 1016.5 1016.4 0.0
05/06:00pm 26.3 22.9 10.5 37 8.8 NNE 19 30 10 16 1016.4 1016.3 0.0
05/05:30pm 27.1 23.9 11.2 37 9.0 NNE 19 30 10 16 1016.6 1016.5 0.0
05/05:00pm 27.3 24.3 10.5 35 9.4 NE 17 26 9 14 1016.7 1016.6 0.0
05/04:30pm 27.1 23.6 10.3 35 9.4 NNE 19 28 10 15 1017.0 1016.9 0.0
05/04:00pm 27.2 24.0 10.0 34 9.6 NNE 17 30 9 16 1017.3 1017.2 0.0
05/03:30pm 27.8 24.9 10.9 35 9.6 NE 17 32 9 17 1017.5 1017.4 0.0
05/03:00pm 27.5 24.4 10.2 34 9.7 NE 17 28 9 15 1017.9 1017.8 0.0
05/02:30pm 27.0 24.4 11.9 39 8.7 NE 17 32 9 17 1018.2 1018.1 0.0
05/02:00pm 26.2 23.0 11.2 39 8.5 NE 19 28 10 15 1018.6 1018.5 0.0
05/01:30pm 26.3 23.6 10.5 37 8.8 NNE 15 24 8 13 1019.0 1018.9 0.0
05/01:00pm 26.0 23.0 10.6 38 8.6 NNE 17 26 9 14 1019.4 1019.3 0.0
05/12:30pm 24.9 21.3 10.0 39 8.2 NE 19 28 10 15 1019.8 1019.7 0.0
05/12:00pm 24.8 21.5 9.5 38 8.3 NNE 17 28 9 15 1020.0 1019.9 0.0
05/11:30am 24.4 20.7 9.6 39 8.1 NNE 19 28 10 15 1020.3 1020.2 0.0
05/11:00am 23.8 20.6 10.1 42 7.5 N 17 32 9 17 1020.5 1020.4 0.0
05/10:30am 22.7 19.1 9.8 44 7.0 N 19 28 10 15 1020.6 1020.5 0.0
05/10:00am 21.8 18.7 11.5 52 5.7 N 19 28 10 15 1020.7 1020.6 0.0
05/09:30am 21.1 19.4 12.3 57 5.0 N 13 26 7 14 1020.7 1020.6 0.0
05/09:00am 19.9 17.6 12.9 64 3.9 NNE 17 24 9 13 1020.8 1020.7 0.0
05/08:30am 19.2 16.9 12.9 67 3.6 ENE 17 28 9 15 1020.6 1020.5 0.0
05/08:00am 18.5 16.5 12.7 69 3.2 ENE 15 26 8 14 1020.4 1020.3 0.0
05/07:30am 17.5 15.9 12.8 74 2.6 NE 13 24 7 13 1020.3 1020.2 0.0
05/07:00am 17.0 16.4 13.5 80 2.0 ENE 9 19 5 10 1020.2 1020.1 0.0
05/06:30am 16.9 15.8 13.0 78 2.2 ENE 11 22 6 12 1019.9 1019.8 0.0
05/06:00am 17.2 16.9 12.7 75 2.5 ENE 6 15 3 8 1019.6 1019.5 0.0
05/05:30am 16.9 16.6 12.8 77 2.3 ENE 6 15 3 8 1019.2 1019.1 0.0
05/05:00am 17.0 18.0 13.1 78 2.2 CALM 0 11 0 6 1019.1 1019.0 0.0
05/04:30am 17.2 17.8 13.1 77 2.3 ENE 2 17 1 9 1019.1 1019.0 0.0
05/04:00am 16.6 17.9 14.2 86 1.4 CALM 0 11 0 6 1019.2 1019.1 0.0
05/03:30am 16.2 17.5 14.2 88 1.1 CALM 0 0 0 0 1019.3 1019.2 0.0
05/03:00am 16.6 18.2 15.0 90 0.9 CALM 0 0 0 0 1019.3 1019.2 0.0
05/02:30am 16.6 18.1 14.6 88 1.1 CALM 0 0 0 0 1019.5 1019.4 0.0
05/02:00am 16.8 18.3 14.6 87 1.3 CALM 0 6 0 3 1019.7 1019.6 0.0
05/01:30am 17.1 18.6 14.7 86 1.4 CALM 0 0 0 0 1019.8 1019.7 0.0
05/01:00am 17.4 18.6 14.9 85 1.4 ENE 2 13 1 7 1019.9 1019.8 0.0
05/12:30am 17.7 18.5 14.8 83 1.7 E 4 15 2 8 1019.9 1019.8 0.0
05/12:00am 17.9 17.3 14.6 81 1.9 E 11 19 6 10 1019.9 1019.8 0.0
 
Date/Time
EDT
Tmp

°C
App
Tmp
°C
Dew
Point
°C
Rel
Hum
%
Delta-T

°C
Wind Press
QNH
hPa
Press
MSL
hPa
Rain
since
9 am
mm
Dir
 
Spd
km/h
Gust
km/h
Spd
kts
Gust
kts
04/11:30pm 17.5 17.8 14.4 82 1.8 ESE 6 15 3 8 1020.0 1019.9 0.0
04/11:00pm 17.2 17.2 14.1 82 1.8 E 7 13 4 7 1020.2 1020.1 0.0
04/10:30pm 17.3 16.9 14.0 81 1.9 E 9 17 5 9 1020.3 1020.2 0.0
04/10:00pm 17.3 16.4 13.8 80 2.0 E 11 17 6 9 1020.3 1020.2 0.0
04/09:30pm 17.4 16.1 13.7 79 2.1 E 13 22 7 12 1020.2 1020.1 0.0
04/09:00pm 17.4 15.7 13.5 78 2.2 ESE 15 22 8 12 1020.0 1019.9 0.0
04/08:30pm 17.8 15.7 13.5 76 2.4 ESE 17 24 9 13 1019.8 1019.7 0.0
04/08:00pm 18.2 15.7 13.5 74 2.7 SE 19 26 10 14 1019.8 1019.7 0.0
04/07:30pm 18.8 16.0 13.2 70 3.2 SE 20 32 11 17 1019.4 1019.3 0.0
04/07:00pm 19.4 16.6 13.3 68 3.5 ESE 20 30 11 16 1019.1 1019.0 0.0
04/06:30pm 19.4 16.5 12.4 64 3.9 SE 19 30 10 16 1019.0 1018.9 0.0
04/06:00pm 19.9 17.4 12.2 61 4.3 SSE 17 28 9 15 1019.0 1018.9 0.0
04/05:30pm 20.0 17.0 12.0 60 4.5 SSE 19 26 10 14 1019.1 1019.0 0.0
04/05:00pm 20.3 17.6 12.8 62 4.2 SE 19 26 10 14 1019.2 1019.1 0.0
04/04:30pm 20.2 17.0 11.9 59 4.6 SE 20 28 11 15 1019.4 1019.3 0.0
04/04:00pm 20.8 17.7 12.2 58 4.8 SE 20 28 11 15 1019.3 1019.2 0.0
04/03:30pm 20.3 17.3 12.0 59 4.6 SE 19 32 10 17 1019.4 1019.3 0.0
04/03:00pm 20.4 17.1 12.9 62 4.2 SSE 22 33 12 18 1019.6 1019.5 0.0
04/02:30pm 20.4 17.0 12.4 60 4.5 SE 22 32 12 17 1019.6 1019.5 0.0
04/02:00pm 20.2 16.6 11.9 59 4.6 SSE 22 33 12 18 1019.6 1019.5 0.0
04/01:30pm 20.3 16.7 11.8 58 4.7 SE 22 33 12 18 1019.7 1019.6 0.0
04/01:00pm 19.5 16.1 11.3 59 4.5 SE 20 30 11 16 1020.0 1019.9 0.0
04/12:30pm 19.7 15.8 10.9 57 4.8 SE 22 32 12 17 1020.1 1020.0 0.0
04/12:00pm 20.4 17.0 11.1 55 5.1 SE 20 30 11 16 1020.0 1019.9 0.0
04/11:30am 18.9 14.5 10.5 58 4.5 SE 24 33 13 18 1020.0 1019.9 0.0
04/11:00am 18.5 14.6 10.8 61 4.1 SE 22 33 12 18 1020.0 1019.9 0.0
04/10:30am 18.7 15.2 11.0 61 4.2 SE 20 32 11 17 1019.7 1019.6 0.0

Latest Capital City Observations: Canberra | Sydney | Melbourne | Brisbane | Adelaide | Perth | Hobart | Darwin

Other Formats:

Comma delimited format used in spreadsheet applications
http://www.bom.gov.au/fwo/IDV60901/IDV60901.94898.axf

JavaScript Object Notation format (JSON) in row-major order
http://www.bom.gov.au/fwo/IDV60901/IDV60901.94898.json